DLH2EL EDDN-EDDH
Flight info
| Callsign | DLH2EL |
|---|---|
| Flight time | N/A |
| Altitude | 30000 |
| Route | ERETO1G ERETO DCT LONLI M726 LASTO M852 LARET/N0445F340 M852 HLZ Z990 DIRBO/N0395F230 T902 RARUP RARUP6A |
| Aircraft | A320/M-SDE3FGHIRWY/LB1 |
Departure
| Time | 2026-05-07 17:26 |
|---|---|
| Airport | Nuremberg Airport (EDDN) |
Arrival
| Time | N/A |
|---|---|
| Airport | Hamburg Helmut Schmidt Airport (EDDH) |
| Time | Latitude | Longitude | Altitude | Speed | Heading |
|---|---|---|---|---|---|
| 2026-05-07 16:59 | 49.49525 | 11.07660 | 1023 ft | 0 kts | 188° |
| 2026-05-07 17:18 | 49.49531 | 11.07661 | 1024 ft | 2 kts | 188° |
| 2026-05-07 17:18 | 49.49548 | 11.07665 | 1025 ft | 2 kts | 188° |
| 2026-05-07 17:18 | 49.49563 | 11.07668 | 1028 ft | 2 kts | 188° |
| 2026-05-07 17:18 | 49.49579 | 11.07672 | 1029 ft | 2 kts | 188° |
| 2026-05-07 17:19 | 49.49595 | 11.07672 | 1028 ft | 2 kts | 136° |
| 2026-05-07 17:19 | 49.49601 | 11.07661 | 1029 ft | 0 kts | 105° |
| 2026-05-07 17:20 | 49.49601 | 11.07662 | 1029 ft | 0 kts | 104° |
| 2026-05-07 17:20 | 49.49589 | 11.07749 | 1028 ft | 14 kts | 101° |
| 2026-05-07 17:20 | 49.49582 | 11.07845 | 1030 ft | 12 kts | 96° |
| 2026-05-07 17:21 | 49.49569 | 11.07968 | 1030 ft | 11 kts | 99° |
| 2026-05-07 17:21 | 49.49558 | 11.08079 | 1030 ft | 10 kts | 99° |
| 2026-05-07 17:21 | 49.49548 | 11.08179 | 1028 ft | 9 kts | 97° |
| 2026-05-07 17:21 | 49.49550 | 11.08342 | 1032 ft | 19 kts | 77° |
| 2026-05-07 17:22 | 49.49583 | 11.08517 | 1033 ft | 16 kts | 74° |
| 2026-05-07 17:22 | 49.49590 | 11.08673 | 1034 ft | 13 kts | 95° |
| 2026-05-07 17:22 | 49.49580 | 11.08796 | 1035 ft | 10 kts | 97° |
| 2026-05-07 17:22 | 49.49574 | 11.08888 | 1037 ft | 7 kts | 99° |
| 2026-05-07 17:23 | 49.49561 | 11.09005 | 1037 ft | 23 kts | 98° |
| 2026-05-07 17:23 | 49.49534 | 11.09280 | 1040 ft | 14 kts | 97° |
| 2026-05-07 17:23 | 49.49559 | 11.09397 | 1042 ft | 10 kts | 60° |
| 2026-05-07 17:23 | 49.49592 | 11.09483 | 1042 ft | 9 kts | 58° |
| 2026-05-07 17:24 | 49.49639 | 11.09552 | 1044 ft | 13 kts | 20° |
| 2026-05-07 17:24 | 49.49707 | 11.09487 | 1044 ft | 13 kts | 291° |
| 2026-05-07 17:24 | 49.49712 | 11.09450 | 1043 ft | 0 kts | 281° |
| 2026-05-07 17:25 | 49.49713 | 11.09438 | 1043 ft | 5 kts | 280° |
| 2026-05-07 17:25 | 49.49747 | 11.09059 | 1039 ft | 73 kts | 278° |
| 2026-05-07 17:25 | 49.49849 | 11.08027 | 1031 ft | 129 kts | 278° |
| 2026-05-07 17:26 | 49.50020 | 11.06413 | 1215 ft | 161 kts | 278° |
| 2026-05-07 17:26 | 49.50209 | 11.04704 | 1927 ft | 161 kts | 280° |
| 2026-05-07 17:26 | 49.50376 | 11.02983 | 2578 ft | 172 kts | 281° |
| 2026-05-07 17:26 | 49.50558 | 11.01077 | 2973 ft | 195 kts | 279° |
| 2026-05-07 17:27 | 49.50768 | 10.98876 | 3523 ft | 215 kts | 279° |
| 2026-05-07 17:27 | 49.50995 | 10.96476 | 3983 ft | 239 kts | 279° |
| 2026-05-07 17:27 | 49.51465 | 10.93933 | 4659 ft | 251 kts | 302° |
| 2026-05-07 17:27 | 49.52800 | 10.92202 | 5520 ft | 259 kts | 337° |
| 2026-05-07 17:28 | 49.54592 | 10.91690 | 6453 ft | 266 kts | 355° |
| 2026-05-07 17:28 | 49.56435 | 10.91775 | 7318 ft | 271 kts | 2° |
| 2026-05-07 17:28 | 49.58358 | 10.91943 | 8201 ft | 274 kts | 358° |
| 2026-05-07 17:28 | 49.60239 | 10.91960 | 9060 ft | 278 kts | 356° |
| 2026-05-07 17:29 | 49.62183 | 10.91914 | 9960 ft | 282 kts | 356° |
| 2026-05-07 17:29 | 49.64199 | 10.91839 | 10449 ft | 300 kts | 356° |
| 2026-05-07 17:29 | 49.66352 | 10.91753 | 10720 ft | 324 kts | 356° |
| 2026-05-07 17:29 | 49.68660 | 10.91672 | 11229 ft | 336 kts | 357° |
| 2026-05-07 17:30 | 49.71015 | 10.91607 | 11996 ft | 341 kts | 357° |
| 2026-05-07 17:30 | 49.73434 | 10.91553 | 12774 ft | 345 kts | 357° |
| 2026-05-07 17:30 | 49.75846 | 10.91502 | 13532 ft | 349 kts | 356° |
| 2026-05-07 17:30 | 49.78273 | 10.91451 | 14231 ft | 353 kts | 356° |
| 2026-05-07 17:31 | 49.80737 | 10.91401 | 14895 ft | 357 kts | 357° |
| 2026-05-07 17:31 | 49.83214 | 10.91350 | 15550 ft | 361 kts | 357° |
| 2026-05-07 17:31 | 49.85727 | 10.91300 | 16207 ft | 365 kts | 357° |
| 2026-05-07 17:31 | 49.88294 | 10.91246 | 16877 ft | 368 kts | 357° |
| 2026-05-07 17:32 | 49.90860 | 10.91188 | 17535 ft | 372 kts | 358° |
| 2026-05-07 17:32 | 49.93474 | 10.91128 | 18207 ft | 375 kts | 357° |
| 2026-05-07 17:32 | 49.96068 | 10.91069 | 18777 ft | 378 kts | 358° |
| 2026-05-07 17:32 | 49.98702 | 10.91010 | 19324 ft | 381 kts | 358° |
| 2026-05-07 17:33 | 50.01383 | 10.90950 | 19890 ft | 384 kts | 358° |
| 2026-05-07 17:33 | 50.04042 | 10.90891 | 20414 ft | 387 kts | 358° |
| 2026-05-07 17:33 | 50.06753 | 10.90832 | 20966 ft | 390 kts | 358° |
| 2026-05-07 17:33 | 50.09486 | 10.90775 | 21500 ft | 393 kts | 358° |
| 2026-05-07 17:34 | 50.12263 | 10.90719 | 22046 ft | 396 kts | 358° |
| 2026-05-07 17:34 | 50.15017 | 10.90661 | 22547 ft | 400 kts | 358° |
| 2026-05-07 17:34 | 50.17821 | 10.90601 | 23045 ft | 403 kts | 358° |
| 2026-05-07 17:34 | 50.20603 | 10.90541 | 23539 ft | 406 kts | 358° |
| 2026-05-07 17:35 | 50.23472 | 10.90478 | 23981 ft | 409 kts | 358° |
| 2026-05-07 17:35 | 50.26289 | 10.90413 | 24402 ft | 411 kts | 358° |
| 2026-05-07 17:35 | 50.29185 | 10.90352 | 24832 ft | 414 kts | 358° |
| 2026-05-07 17:35 | 50.32084 | 10.90291 | 25272 ft | 416 kts | 358° |
| 2026-05-07 17:36 | 50.34948 | 10.90225 | 25671 ft | 418 kts | 358° |
| 2026-05-07 17:36 | 50.37859 | 10.90159 | 26090 ft | 420 kts | 358° |
| 2026-05-07 17:36 | 50.40782 | 10.90095 | 26533 ft | 421 kts | 358° |
| 2026-05-07 17:36 | 50.43726 | 10.90020 | 26929 ft | 424 kts | 358° |
| 2026-05-07 17:37 | 50.46686 | 10.89898 | 27341 ft | 426 kts | 358° |
| 2026-05-07 17:37 | 50.49703 | 10.89738 | 27756 ft | 428 kts | 357° |
| 2026-05-07 17:37 | 50.52600 | 10.89566 | 28128 ft | 430 kts | 357° |
| 2026-05-07 17:37 | 50.55607 | 10.89385 | 28510 ft | 433 kts | 357° |
| 2026-05-07 17:38 | 50.58650 | 10.89205 | 28898 ft | 434 kts | 358° |
| 2026-05-07 17:38 | 50.61681 | 10.89032 | 29223 ft | 437 kts | 358° |
| 2026-05-07 17:38 | 50.64757 | 10.88867 | 29571 ft | 440 kts | 358° |
| 2026-05-07 17:38 | 50.67792 | 10.88710 | 29918 ft | 441 kts | 358° |
| 2026-05-07 17:39 | 50.70899 | 10.88555 | 30233 ft | 444 kts | 358° |
| 2026-05-07 17:39 | 50.73954 | 10.88400 | 30494 ft | 446 kts | 358° |
| 2026-05-07 17:39 | 50.77050 | 10.88240 | 30807 ft | 447 kts | 358° |
| 2026-05-07 17:39 | 50.80170 | 10.88077 | 31174 ft | 447 kts | 358° |
| 2026-05-07 17:40 | 50.83271 | 10.87915 | 31525 ft | 447 kts | 357° |
| 2026-05-07 17:40 | 50.86359 | 10.87751 | 31900 ft | 447 kts | 357° |
| 2026-05-07 17:40 | 50.89454 | 10.87583 | 32065 ft | 448 kts | 357° |
| 2026-05-07 17:40 | 50.92621 | 10.87411 | 32084 ft | 448 kts | 357° |
| 2026-05-07 17:41 | 50.98838 | 10.87092 | 32084 ft | 449 kts | 357° |
| 2026-05-07 17:41 | 51.05099 | 10.86755 | 32084 ft | 449 kts | 357° |
| 2026-05-07 17:42 | 51.11262 | 10.86422 | 32080 ft | 439 kts | 357° |
| 2026-05-07 17:42 | 51.17351 | 10.86097 | 32080 ft | 437 kts | 357° |
| 2026-05-07 17:43 | 51.23425 | 10.85766 | 32071 ft | 437 kts | 357° |
| 2026-05-07 17:43 | 51.29492 | 10.85432 | 32069 ft | 437 kts | 357° |
| 2026-05-07 17:44 | 51.35592 | 10.85104 | 32069 ft | 437 kts | 357° |
| 2026-05-07 17:44 | 51.41600 | 10.84771 | 32069 ft | 437 kts | 358° |
| 2026-05-07 17:45 | 51.47690 | 10.84441 | 32073 ft | 437 kts | 357° |
| 2026-05-07 17:45 | 51.53793 | 10.84110 | 32075 ft | 437 kts | 357° |
| 2026-05-07 17:46 | 51.59877 | 10.83779 | 32074 ft | 437 kts | 356° |
| 2026-05-07 17:46 | 51.65932 | 10.83455 | 32077 ft | 437 kts | 357° |
| 2026-05-07 17:47 | 51.71956 | 10.83131 | 32082 ft | 437 kts | 357° |
| 2026-05-07 17:47 | 51.78037 | 10.82794 | 32076 ft | 437 kts | 357° |
| 2026-05-07 17:48 | 51.84063 | 10.82458 | 32082 ft | 436 kts | 357° |
| 2026-05-07 17:48 | 51.90102 | 10.82119 | 31666 ft | 427 kts | 357° |
| 2026-05-07 17:49 | 51.93012 | 10.81958 | 31267 ft | 420 kts | 357° |
| 2026-05-07 17:49 | 51.95910 | 10.81798 | 30795 ft | 416 kts | 357° |
| 2026-05-07 17:49 | 51.98842 | 10.81637 | 30309 ft | 411 kts | 357° |
| 2026-05-07 17:49 | 52.01685 | 10.81480 | 29778 ft | 407 kts | 357° |
| 2026-05-07 17:50 | 52.04479 | 10.81322 | 29231 ft | 403 kts | 357° |
| 2026-05-07 17:50 | 52.07294 | 10.81162 | 28667 ft | 400 kts | 357° |
| 2026-05-07 17:50 | 52.09997 | 10.81011 | 28118 ft | 397 kts | 357° |
| 2026-05-07 17:50 | 52.12771 | 10.80852 | 27571 ft | 394 kts | 357° |
| 2026-05-07 17:51 | 52.15492 | 10.80697 | 27035 ft | 391 kts | 357° |
| 2026-05-07 17:51 | 52.18209 | 10.80545 | 26506 ft | 388 kts | 357° |
| 2026-05-07 17:51 | 52.20831 | 10.80398 | 25994 ft | 386 kts | 357° |
| 2026-05-07 17:51 | 52.23522 | 10.80251 | 25486 ft | 383 kts | 357° |
| 2026-05-07 17:52 | 52.26195 | 10.80106 | 25144 ft | 381 kts | 357° |
| 2026-05-07 17:52 | 52.28831 | 10.79961 | 25096 ft | 382 kts | 357° |
| 2026-05-07 17:52 | 52.31495 | 10.79811 | 25105 ft | 383 kts | 357° |
| 2026-05-07 17:52 | 52.34168 | 10.79655 | 25107 ft | 383 kts | 356° |
| 2026-05-07 17:53 | 52.36832 | 10.79555 | 24940 ft | 381 kts | 1° |
| 2026-05-07 17:53 | 52.39463 | 10.79847 | 24436 ft | 379 kts | 2° |
| 2026-05-07 17:53 | 52.42062 | 10.80118 | 24131 ft | 371 kts | 2° |
| 2026-05-07 17:53 | 52.44616 | 10.80365 | 23754 ft | 366 kts | 2° |
| 2026-05-07 17:54 | 52.47163 | 10.80608 | 23266 ft | 363 kts | 2° |
| 2026-05-07 17:54 | 52.49645 | 10.80852 | 22475 ft | 358 kts | 2° |
| 2026-05-07 17:54 | 52.52133 | 10.81105 | 21691 ft | 354 kts | 2° |
| 2026-05-07 17:54 | 52.54554 | 10.81355 | 20960 ft | 349 kts | 2° |
| 2026-05-07 17:55 | 52.56984 | 10.81611 | 20234 ft | 345 kts | 2° |
| 2026-05-07 17:55 | 52.59299 | 10.81860 | 19548 ft | 342 kts | 3° |
| 2026-05-07 17:55 | 52.61651 | 10.82117 | 18869 ft | 338 kts | 3° |
| 2026-05-07 17:55 | 52.64040 | 10.82376 | 18161 ft | 335 kts | 3° |
| 2026-05-07 17:56 | 52.66369 | 10.82622 | 17415 ft | 331 kts | 3° |
| 2026-05-07 17:56 | 52.68616 | 10.82857 | 16719 ft | 328 kts | 3° |
| 2026-05-07 17:56 | 52.70861 | 10.83094 | 16055 ft | 325 kts | 3° |
| 2026-05-07 17:56 | 52.73115 | 10.83336 | 15389 ft | 323 kts | 3° |
| 2026-05-07 17:57 | 52.75333 | 10.83575 | 14743 ft | 320 kts | 3° |
| 2026-05-07 17:57 | 52.76834 | 10.83737 | 14327 ft | 317 kts | 3° |
| 2026-05-07 17:57 | 52.79674 | 10.84042 | 13521 ft | 312 kts | 3° |
| 2026-05-07 17:57 | 52.81843 | 10.84269 | 12844 ft | 309 kts | 2° |
| 2026-05-07 17:58 | 52.83998 | 10.84230 | 12172 ft | 306 kts | 355° |
| 2026-05-07 17:58 | 52.86031 | 10.83849 | 11538 ft | 303 kts | 352° |
| 2026-05-07 17:58 | 52.88119 | 10.83421 | 11154 ft | 301 kts | 353° |
| 2026-05-07 17:58 | 52.90145 | 10.83011 | 11070 ft | 302 kts | 353° |
| 2026-05-07 17:59 | 52.92239 | 10.82586 | 11082 ft | 303 kts | 353° |
| 2026-05-07 17:59 | 52.94280 | 10.82168 | 11083 ft | 303 kts | 353° |
| 2026-05-07 17:59 | 52.95835 | 10.81837 | 11085 ft | 302 kts | 352° |
| 2026-05-07 17:59 | 52.97843 | 10.81387 | 11088 ft | 303 kts | 352° |